createdAt,value
2023-04-18T00:01:42.053Z,12.55
2023-04-18T00:04:08.817Z,15.32
2023-04-18T00:06:38.365Z,14.32
2023-04-18T00:09:04.973Z,11.68
2023-04-18T00:11:31.688Z,12.27
2023-04-18T00:13:59.344Z,12.70
2023-04-18T00:16:28.206Z,13.32
2023-04-18T00:18:55.371Z,12.98
2023-04-18T00:21:22.547Z,14.85
2023-04-18T00:23:49.200Z,14.70
2023-04-18T00:26:15.889Z,15.23
2023-04-18T00:28:44.584Z,16.73
2023-04-18T00:31:11.182Z,14.15
2023-04-18T00:33:37.853Z,16.13
2023-04-18T00:36:04.852Z,16.13
2023-04-18T00:38:31.440Z,14.52
2023-04-18T00:40:58.060Z,15.13
2023-04-18T00:43:24.762Z,15.05
2023-04-18T00:45:51.414Z,14.88
2023-04-18T00:48:18.268Z,13.45
2023-04-18T00:50:45.374Z,15.27
2023-04-18T00:53:11.964Z,14.68
2023-04-18T00:55:38.782Z,17.45
2023-04-18T00:58:06.194Z,14.75
2023-04-18T01:00:32.796Z,17.02
2023-04-18T01:03:00.083Z,16.80
2023-04-18T01:05:27.233Z,16.15
2023-04-18T01:07:58.618Z,15.45
2023-04-18T01:10:25.459Z,15.68
2023-04-18T01:13:12.508Z,16.95
2023-04-18T01:15:43.823Z,19.02
2023-04-18T01:18:11.684Z,18.13
2023-04-18T01:20:41.495Z,16.05
2023-04-18T01:23:10.283Z,14.63
2023-04-18T01:25:37.319Z,17.05
2023-04-18T01:28:04.604Z,15.63
2023-04-18T01:30:31.198Z,16.67
2023-04-18T01:32:58.480Z,17.98
2023-04-18T01:35:26.848Z,17.67
2023-04-18T01:37:56.177Z,15.55
2023-04-18T01:40:23.434Z,18.52
2023-04-18T01:42:50.055Z,19.40
2023-04-18T01:45:17.224Z,18.15
2023-04-18T01:47:44.166Z,17.17
2023-04-18T01:50:12.229Z,21.80
2023-04-18T01:52:38.855Z,18.98
2023-04-18T01:55:06.163Z,17.90
2023-04-18T01:57:36.655Z,15.75
2023-04-18T02:00:06.151Z,18.00
2023-04-18T02:02:41.175Z,15.75
2023-04-18T02:05:08.618Z,17.48
2023-04-18T02:07:38.283Z,15.07
2023-04-18T02:10:05.220Z,17.55
2023-04-18T02:12:32.000Z,16.48
2023-04-18T02:14:59.882Z,18.40
2023-04-18T02:17:26.517Z,16.35
2023-04-18T02:19:54.443Z,16.88
2023-04-18T02:22:21.103Z,18.23
2023-04-18T02:24:47.662Z,17.73
2023-04-18T02:27:15.235Z,20.35
2023-04-18T02:29:41.807Z,16.38
2023-04-18T02:32:09.082Z,18.55
2023-04-18T02:34:36.458Z,16.45
2023-04-18T02:37:03.274Z,15.00
2023-04-18T02:39:29.845Z,15.10
2023-04-18T02:41:56.468Z,18.13
2023-04-18T02:44:25.100Z,14.52
2023-04-18T02:46:51.687Z,17.92
2023-04-18T02:49:18.537Z,15.77
2023-04-18T02:51:45.183Z,16.80
2023-04-18T02:54:11.981Z,17.08
2023-04-18T02:56:54.633Z,15.48
2023-04-18T02:59:30.146Z,14.50
2023-04-18T03:02:06.144Z,17.02
2023-04-18T03:04:34.538Z,21.02
2023-04-18T03:07:04.253Z,15.32
2023-04-18T03:09:35.159Z,17.58
2023-04-18T03:12:07.204Z,16.98
2023-04-18T03:14:36.018Z,16.00
2023-04-18T03:17:04.241Z,15.38
2023-04-18T03:19:37.199Z,15.52
2023-04-18T03:22:07.945Z,14.55
2023-04-18T03:24:37.750Z,15.88
2023-04-18T03:27:06.564Z,15.95
2023-04-18T03:29:34.127Z,14.73
2023-04-18T03:32:01.359Z,14.60
2023-04-18T03:34:28.409Z,13.82
2023-04-18T03:36:55.501Z,15.93
2023-04-18T03:39:22.665Z,16.38
2023-04-18T03:41:49.826Z,17.13
2023-04-18T03:44:17.118Z,13.80
2023-04-18T03:46:44.033Z,15.05
2023-04-18T03:49:10.697Z,14.30
2023-04-18T03:51:48.837Z,15.68
2023-04-18T03:54:16.546Z,17.00
2023-04-18T03:56:43.624Z,14.40
2023-04-18T03:59:10.808Z,14.98
2023-04-18T04:01:39.795Z,18.70
2023-04-18T04:04:06.725Z,16.95
2023-04-18T04:06:33.420Z,17.55
2023-04-18T04:09:01.409Z,20.17
2023-04-18T04:11:29.264Z,18.15
2023-04-18T04:13:55.929Z,16.30
2023-04-18T04:18:55.114Z,17.75
2023-04-18T04:21:27.077Z,13.50
2023-04-18T04:23:53.683Z,17.30
2023-04-18T04:26:27.665Z,14.52
2023-04-18T04:29:03.525Z,16.27
2023-04-18T04:31:32.038Z,15.20
2023-04-18T04:33:58.772Z,15.27
2023-04-18T04:36:27.198Z,15.48
2023-04-18T04:38:55.548Z,16.17
2023-04-18T04:41:31.601Z,15.00
2023-04-18T04:43:59.550Z,14.38
2023-04-18T04:46:30.653Z,17.67
2023-04-18T04:48:59.016Z,15.48
2023-04-18T04:51:26.111Z,15.75
2023-04-18T04:53:52.915Z,17.27
2023-04-18T04:56:19.616Z,16.92
2023-04-18T04:58:47.318Z,14.68
2023-04-18T05:01:23.926Z,14.48
2023-04-18T05:03:52.473Z,15.20
2023-04-18T05:06:20.792Z,16.60
2023-04-18T05:08:48.006Z,15.80
2023-04-18T05:11:15.370Z,15.77
2023-04-18T05:13:42.153Z,13.60
2023-04-18T05:16:08.884Z,14.20
2023-04-18T05:18:39.070Z,15.63
2023-04-18T05:21:06.020Z,14.00
2023-04-18T05:23:32.957Z,17.60
2023-04-18T05:25:59.548Z,14.27
2023-04-18T05:28:27.091Z,14.45
2023-04-18T05:31:01.009Z,13.32
2023-04-18T05:33:31.519Z,13.55
2023-04-18T05:35:58.928Z,13.85
2023-04-18T05:38:25.561Z,16.48
2023-04-18T05:40:52.166Z,13.30
2023-04-18T05:43:19.311Z,13.70
2023-04-18T05:45:46.021Z,14.98
2023-04-18T05:48:12.814Z,15.98
2023-04-18T05:50:39.521Z,16.13
2023-04-18T05:53:06.292Z,16.23
2023-04-18T05:55:34.247Z,15.43
2023-04-18T05:58:01.014Z,14.00
2023-04-18T06:00:28.072Z,13.77
2023-04-18T06:02:55.250Z,15.45
2023-04-18T06:05:22.237Z,14.50
2023-04-18T06:07:48.994Z,14.77
2023-04-18T06:10:15.777Z,13.57
2023-04-18T06:12:42.426Z,14.38
2023-04-18T06:15:09.873Z,14.77
2023-04-18T06:17:36.509Z,14.18
2023-04-18T06:20:04.959Z,16.23
2023-04-18T06:22:31.730Z,12.82
2023-04-18T06:24:58.292Z,18.73
2023-04-18T06:27:31.538Z,15.13
2023-04-18T06:29:58.711Z,15.73
2023-04-18T06:32:25.695Z,15.93
2023-04-18T06:34:53.051Z,16.83
2023-04-18T06:37:19.828Z,16.65
2023-04-18T06:39:46.427Z,19.40
2023-04-18T06:42:13.033Z,21.67
2023-04-18T06:44:44.370Z,15.35
2023-04-18T06:47:11.255Z,15.90
2023-04-18T06:49:37.828Z,14.90
2023-04-18T06:52:04.433Z,19.40
2023-04-18T06:54:31.008Z,16.48
2023-04-18T06:56:57.599Z,15.38
2023-04-18T06:59:24.292Z,14.48
2023-04-18T07:01:51.437Z,16.98
2023-04-18T07:04:18.511Z,15.73
2023-04-18T07:06:45.521Z,16.05
2023-04-18T07:09:12.369Z,12.48
2023-04-18T07:11:40.514Z,14.85
2023-04-18T07:14:07.135Z,16.85
2023-04-18T07:16:34.396Z,14.50
2023-04-18T07:19:01.111Z,15.02
2023-04-18T07:21:27.993Z,14.88
2023-04-18T07:23:54.659Z,15.82
2023-04-18T07:26:21.290Z,14.13
2023-04-18T07:28:48.983Z,14.95
2023-04-18T07:31:16.476Z,16.70
2023-04-18T07:33:43.357Z,18.70
2023-04-18T07:36:09.985Z,16.25
2023-04-18T07:38:36.635Z,15.57
2023-04-18T07:41:03.325Z,18.95
2023-04-18T07:43:30.366Z,17.00
2023-04-18T07:45:57.002Z,18.17
2023-04-18T07:48:25.158Z,16.27
2023-04-18T07:50:51.774Z,19.05
2023-04-18T07:53:18.340Z,19.08
2023-04-18T07:55:45.656Z,16.10
2023-04-18T07:58:12.506Z,16.35
2023-04-18T08:00:39.596Z,15.73
2023-04-18T08:03:16.206Z,18.77
2023-04-18T08:05:43.500Z,17.77
2023-04-18T08:08:11.028Z,17.38
2023-04-18T08:10:37.849Z,16.38
2023-04-18T08:13:04.573Z,17.85
2023-04-18T08:15:32.358Z,17.90
2023-04-18T08:17:59.874Z,17.05
2023-04-18T08:20:26.525Z,17.50
2023-04-18T08:23:05.589Z,15.77
2023-04-18T08:25:33.389Z,15.52
2023-04-18T08:28:00.303Z,17.70
2023-04-18T08:30:26.932Z,18.48
2023-04-18T08:32:53.598Z,16.67
2023-04-18T08:35:20.284Z,17.33
2023-04-18T08:37:47.071Z,17.88
2023-04-18T08:40:13.680Z,18.45
2023-04-18T08:42:42.343Z,21.00
2023-04-18T08:45:09.495Z,14.95
2023-04-18T08:47:36.140Z,17.60
2023-04-18T08:50:03.154Z,16.08
2023-04-18T08:52:31.080Z,17.98
2023-04-18T08:54:57.724Z,15.18
2023-04-18T08:57:27.357Z,18.05
2023-04-18T08:59:54.458Z,16.80
2023-04-18T09:02:24.017Z,17.15
2023-04-18T09:04:53.637Z,18.77
2023-04-18T09:07:28.396Z,15.23
2023-04-18T09:09:57.233Z,19.60
2023-04-18T09:12:26.358Z,15.73
2023-04-18T09:14:57.382Z,18.13
2023-04-18T09:17:43.433Z,16.45
2023-04-18T09:20:11.259Z,16.15
2023-04-18T09:22:50.232Z,19.73
2023-04-18T09:25:27.227Z,18.23
2023-04-18T09:27:53.930Z,18.48
2023-04-18T09:30:32.812Z,18.55
2023-04-18T09:33:01.277Z,19.38
2023-04-18T09:35:28.223Z,20.90
2023-04-18T09:37:54.986Z,17.10
2023-04-18T09:40:21.811Z,19.38
2023-04-18T09:42:48.694Z,17.58
2023-04-18T09:45:16.156Z,21.73
2023-04-18T09:47:42.792Z,18.33
2023-04-18T09:50:10.292Z,18.95
2023-04-18T09:52:38.492Z,19.08
2023-04-18T09:55:09.927Z,20.33
2023-04-18T09:57:40.573Z,17.58
2023-04-18T10:00:24.519Z,20.67
2023-04-18T10:02:59.639Z,18.65
2023-04-18T10:05:28.460Z,18.90
2023-04-18T10:07:55.785Z,20.13
2023-04-18T10:10:22.741Z,19.35
2023-04-18T10:12:51.260Z,19.13
2023-04-18T10:15:18.564Z,20.85
2023-04-18T10:18:04.264Z,16.90
2023-04-18T10:20:35.112Z,17.48
2023-04-18T10:23:36.794Z,18.02
2023-04-18T10:26:07.899Z,19.27
2023-04-18T10:28:56.459Z,19.60
2023-04-18T10:31:24.637Z,20.08
2023-04-18T10:34:04.738Z,18.85
2023-04-18T10:36:32.396Z,22.20
2023-04-18T10:39:19.972Z,18.35
2023-04-18T10:41:51.126Z,17.17
2023-04-18T10:44:22.852Z,25.70
2023-04-18T10:46:52.852Z,20.38
2023-04-18T10:49:21.948Z,18.00
2023-04-18T10:51:52.495Z,17.52
2023-04-18T10:54:21.798Z,17.45
2023-04-18T10:56:56.556Z,16.65
2023-04-18T10:59:24.037Z,14.68
2023-04-18T11:01:56.449Z,12.48
2023-04-18T11:04:24.481Z,20.63
2023-04-18T11:06:57.124Z,14.68
2023-04-18T11:09:24.443Z,13.95
2023-04-18T11:12:10.954Z,11.30
2023-04-18T11:14:48.953Z,11.85
2023-04-18T11:17:23.775Z,13.50
2023-04-18T11:19:51.679Z,11.95
2023-04-18T11:22:19.030Z,16.33
2023-04-18T11:24:45.741Z,12.00
2023-04-18T11:27:12.732Z,11.48
2023-04-18T11:29:39.617Z,12.75
2023-04-18T11:32:07.399Z,13.50
2023-04-18T11:34:34.175Z,13.23
2023-04-18T11:37:00.824Z,11.98
2023-04-18T11:39:28.005Z,13.07
2023-04-18T11:41:56.465Z,11.55
2023-04-18T11:44:24.512Z,11.32
2023-04-18T11:46:51.453Z,11.13
2023-04-18T11:49:27.662Z,11.25
2023-04-18T11:51:54.346Z,15.65
2023-04-18T11:54:40.434Z,17.45
2023-04-18T11:57:19.520Z,37.35
2023-04-18T11:59:57.554Z,11.13
2023-04-18T12:02:26.486Z,9.82
2023-04-18T12:04:56.321Z,10.82
2023-04-18T12:07:42.414Z,10.38
2023-04-18T12:10:23.406Z,11.32
2023-04-18T12:12:51.312Z,11.32
2023-04-18T12:15:18.830Z,8.98
2023-04-18T12:17:48.542Z,10.63
2023-04-18T12:20:16.056Z,9.50
2023-04-18T12:22:50.162Z,8.25
2023-04-18T12:25:26.219Z,8.80
2023-04-18T12:27:59.296Z,7.72
2023-04-18T12:30:28.165Z,8.10
2023-04-18T12:32:57.714Z,9.80
2023-04-18T12:35:24.731Z,8.50
2023-04-18T12:37:53.297Z,10.13
2023-04-18T12:40:23.109Z,8.88
2023-04-18T12:42:51.148Z,10.63
2023-04-18T12:45:19.082Z,9.15
2023-04-18T12:47:47.364Z,11.35
2023-04-18T12:50:21.653Z,7.68
2023-04-18T12:52:49.416Z,8.27
2023-04-18T12:55:15.993Z,8.80
2023-04-18T12:57:43.169Z,7.95
2023-04-18T13:00:11.171Z,7.63
2023-04-18T13:02:39.267Z,7.60
2023-04-18T13:05:13.456Z,9.10
2023-04-18T13:07:42.371Z,9.55
2023-04-18T13:10:14.088Z,7.85
2023-04-18T13:12:41.412Z,9.55
2023-04-18T13:15:11.144Z,9.23
2023-04-18T13:17:38.813Z,8.88
2023-04-18T13:20:12.996Z,7.72
2023-04-18T13:22:40.738Z,6.80
2023-04-18T13:25:10.613Z,7.05
2023-04-18T13:27:40.927Z,10.55
2023-04-18T13:30:10.067Z,9.95
2023-04-18T13:32:36.902Z,7.15
2023-04-18T13:35:03.925Z,9.18
2023-04-18T13:37:31.240Z,7.57
2023-04-18T13:39:58.274Z,7.90
2023-04-18T13:42:24.921Z,8.82
2023-04-18T13:44:51.529Z,8.38
2023-04-18T13:47:18.879Z,7.15
2023-04-18T13:49:45.649Z,7.40
2023-04-18T13:52:12.327Z,7.68
2023-04-18T13:54:38.954Z,8.35
2023-04-18T13:57:11.368Z,7.65
2023-04-18T13:59:40.343Z,7.60
2023-04-18T14:02:10.336Z,7.90
2023-04-18T14:04:37.293Z,6.32
2023-04-18T14:07:06.168Z,14.20
2023-04-18T14:09:32.840Z,9.13
2023-04-18T14:11:59.514Z,8.35
2023-04-18T14:14:26.254Z,9.35
2023-04-18T14:16:53.707Z,7.57
2023-04-18T14:19:20.372Z,8.10
2023-04-18T14:21:47.438Z,11.05
2023-04-18T14:24:14.260Z,7.93
2023-04-18T14:26:40.839Z,7.80
2023-04-18T14:29:07.396Z,10.60
2023-04-18T14:31:34.175Z,9.95
2023-04-18T14:34:00.995Z,7.97
2023-04-18T14:36:27.657Z,7.10
2023-04-18T14:38:55.023Z,9.75
2023-04-18T14:41:21.608Z,8.00
2023-04-18T14:43:48.750Z,8.93
2023-04-18T14:46:16.587Z,12.05
2023-04-18T14:48:47.148Z,9.30
2023-04-18T14:51:14.996Z,9.68
2023-04-18T14:53:41.562Z,12.75
2023-04-18T14:56:08.174Z,10.02
2023-04-18T14:58:34.756Z,8.82
2023-04-18T15:01:01.376Z,10.60
2023-04-18T15:03:28.074Z,10.73
2023-04-18T15:05:55.044Z,11.02
2023-04-18T15:08:22.039Z,8.93
2023-04-18T15:10:48.680Z,7.13
2023-04-18T15:13:15.758Z,7.72
2023-04-18T15:15:42.448Z,8.02
2023-04-18T15:18:10.858Z,7.05
2023-04-18T15:20:39.193Z,8.35
2023-04-18T15:23:05.765Z,7.35
2023-04-18T15:25:32.421Z,10.38
2023-04-18T15:27:58.995Z,8.32
2023-04-18T15:30:25.688Z,9.63
2023-04-18T15:32:53.881Z,7.97
2023-04-18T15:35:20.780Z,7.43
2023-04-18T15:37:47.420Z,7.35
2023-04-18T15:40:16.183Z,6.93
2023-04-18T15:42:43.664Z,9.10
2023-04-18T15:45:10.896Z,6.85
2023-04-18T15:47:38.657Z,6.05
2023-04-18T15:50:05.970Z,8.25
2023-04-18T15:52:32.629Z,24.00
2023-04-18T15:54:59.315Z,20.63
2023-04-18T15:57:25.928Z,15.70
2023-04-18T15:59:52.648Z,14.70
2023-04-18T16:02:19.335Z,19.38
2023-04-18T16:04:46.314Z,22.45
2023-04-18T16:07:12.992Z,26.00
2023-04-18T16:09:39.567Z,10.73
2023-04-18T16:12:08.038Z,14.13
2023-04-18T16:14:34.638Z,9.65
2023-04-18T16:17:01.304Z,6.53
2023-04-18T16:19:27.898Z,7.10
2023-04-18T16:21:54.490Z,7.88
2023-04-18T16:24:21.035Z,6.72
2023-04-18T16:26:47.667Z,7.25
2023-04-18T16:29:14.216Z,6.90
2023-04-18T16:31:42.581Z,9.10
2023-04-18T16:34:09.747Z,9.65
2023-04-18T16:36:36.310Z,10.07
2023-04-18T16:39:04.550Z,9.77
2023-04-18T16:41:31.213Z,7.68
2023-04-18T16:43:58.200Z,7.53
2023-04-18T16:46:25.337Z,8.77
2023-04-18T16:48:52.692Z,7.05
2023-04-18T16:51:19.356Z,10.13
2023-04-18T16:53:46.686Z,10.75
2023-04-18T16:56:13.280Z,8.80
2023-04-18T16:58:39.848Z,8.95
2023-04-18T17:01:08.179Z,8.18
2023-04-18T17:03:34.891Z,6.95
2023-04-18T17:06:01.696Z,7.38
2023-04-18T17:08:32.929Z,7.53
2023-04-18T17:10:59.659Z,7.50
2023-04-18T17:13:27.148Z,7.18
2023-04-18T17:15:53.964Z,6.28
2023-04-18T17:18:20.802Z,7.75
2023-04-18T17:20:47.646Z,6.55
2023-04-18T17:23:14.243Z,8.30
2023-04-18T17:25:41.271Z,7.25
2023-04-18T17:28:07.848Z,7.85
2023-04-18T17:30:34.504Z,7.95
2023-04-18T17:33:01.093Z,7.18
2023-04-18T17:35:27.660Z,5.95
2023-04-18T17:37:54.225Z,6.90
2023-04-18T17:40:20.808Z,8.07
2023-04-18T17:42:47.497Z,6.22
2023-04-18T17:45:14.095Z,7.10
2023-04-18T17:47:41.176Z,6.75
2023-04-18T17:50:08.174Z,6.50
2023-04-18T17:52:34.741Z,7.78
2023-04-18T17:55:04.230Z,9.20
2023-04-18T17:57:32.889Z,7.72
2023-04-18T17:59:59.451Z,8.57
2023-04-18T18:02:28.125Z,10.73
2023-04-18T18:04:54.827Z,8.35
2023-04-18T18:07:21.407Z,8.60
2023-04-18T18:09:47.975Z,10.13
2023-04-18T18:12:14.602Z,8.82
2023-04-18T18:14:41.238Z,9.55
2023-04-18T18:17:08.000Z,7.93
2023-04-18T18:19:36.249Z,12.63
2023-04-18T18:22:02.943Z,8.40
2023-04-18T18:24:29.519Z,7.55
2023-04-18T18:26:56.817Z,7.57
2023-04-18T18:29:23.476Z,11.43
2023-04-18T18:31:50.333Z,9.07
2023-04-18T18:34:17.133Z,9.63
2023-04-18T18:36:43.743Z,12.30
2023-04-18T18:39:11.123Z,8.98
2023-04-18T18:41:37.762Z,8.07
2023-04-18T18:44:04.361Z,8.60
2023-04-18T18:46:31.068Z,9.60
2023-04-18T18:48:57.733Z,10.70
2023-04-18T18:51:24.348Z,10.98
2023-04-18T18:53:50.898Z,12.13
2023-04-18T18:56:17.497Z,11.93
2023-04-18T18:58:44.052Z,12.02
2023-04-18T19:01:11.490Z,13.80
2023-04-18T19:03:38.333Z,12.00
2023-04-18T19:06:07.003Z,17.75
2023-04-18T19:08:34.045Z,13.63
2023-04-18T19:11:00.634Z,14.70
2023-04-18T19:13:27.196Z,12.85
2023-04-18T19:15:53.851Z,16.70
2023-04-18T19:18:21.326Z,11.07
2023-04-18T19:20:49.528Z,10.20
2023-04-18T19:23:17.198Z,9.68
2023-04-18T19:25:46.507Z,10.32
2023-04-18T19:28:14.412Z,10.95
2023-04-18T19:30:42.302Z,12.70
2023-04-18T19:33:08.892Z,10.75
2023-04-18T19:35:37.794Z,11.55
2023-04-18T19:38:04.647Z,8.68
2023-04-18T19:40:31.221Z,9.00
2023-04-18T19:42:58.074Z,9.52
2023-04-18T19:45:24.630Z,11.48
2023-04-18T19:47:51.327Z,10.38
2023-04-18T19:50:17.988Z,13.07
2023-04-18T19:52:44.555Z,12.18
2023-04-18T19:55:11.347Z,18.98
2023-04-18T19:57:42.086Z,16.05
2023-04-18T20:00:10.477Z,12.68
2023-04-18T20:02:41.890Z,12.55
2023-04-18T20:05:09.283Z,10.32
2023-04-18T20:07:36.173Z,13.40
2023-04-18T20:10:04.276Z,13.27
2023-04-18T20:12:30.933Z,12.65
2023-04-18T20:14:58.853Z,11.40
2023-04-18T20:17:30.437Z,10.65
2023-04-18T20:19:57.496Z,10.77
2023-04-18T20:22:27.102Z,12.00
2023-04-18T20:24:57.055Z,12.07
2023-04-18T20:27:23.740Z,13.10
2023-04-18T20:29:50.404Z,12.40
2023-04-18T20:32:16.997Z,11.15
2023-04-18T20:34:43.614Z,11.43
2023-04-18T20:37:10.208Z,10.55
2023-04-18T20:39:38.155Z,12.52
2023-04-18T20:42:04.868Z,9.45
2023-04-18T20:44:34.287Z,13.02
2023-04-18T20:47:01.085Z,10.60
2023-04-18T20:49:29.459Z,13.18
2023-04-18T20:51:56.137Z,14.13
2023-04-18T20:54:22.798Z,12.63
2023-04-18T20:56:49.421Z,13.75
2023-04-18T20:59:15.988Z,11.35
2023-04-18T21:01:42.664Z,10.85
2023-04-18T21:04:09.618Z,12.40
2023-04-18T21:06:36.686Z,11.93
2023-04-18T21:09:03.808Z,11.27
2023-04-18T21:11:30.417Z,11.35
2023-04-18T21:13:57.011Z,11.93
2023-04-18T21:16:24.196Z,11.68
2023-04-18T21:18:50.799Z,11.05
2023-04-18T21:21:17.699Z,11.93
2023-04-18T21:23:44.460Z,10.80
2023-04-18T21:26:12.971Z,11.63
2023-04-18T21:28:56.386Z,9.93
2023-04-18T21:31:24.156Z,11.13
2023-04-18T21:33:58.355Z,12.10
2023-04-18T21:36:26.952Z,12.23
2023-04-18T21:38:54.689Z,10.13
2023-04-18T21:41:21.334Z,10.55
2023-04-18T21:43:48.073Z,12.13
2023-04-18T21:46:14.966Z,10.65
2023-04-18T21:48:44.391Z,11.18
2023-04-18T21:51:14.638Z,12.75
2023-04-18T21:53:41.795Z,14.25
2023-04-18T21:56:08.685Z,11.43
2023-04-18T21:58:35.531Z,12.82
2023-04-18T22:01:02.234Z,9.73
2023-04-18T22:03:29.237Z,9.80
2023-04-18T22:05:56.601Z,10.70
2023-04-18T22:08:25.732Z,10.07
2023-04-18T22:10:55.989Z,10.00
2023-04-18T22:13:22.626Z,10.85
2023-04-18T22:15:49.885Z,10.68
2023-04-18T22:18:16.471Z,10.25
2023-04-18T22:20:43.160Z,10.98
2023-04-18T22:23:10.192Z,12.93
2023-04-18T22:25:36.936Z,10.38
2023-04-18T22:28:04.186Z,10.40
2023-04-18T22:30:31.521Z,10.48
2023-04-18T22:32:58.946Z,10.88
2023-04-18T22:35:26.118Z,11.02
2023-04-18T22:37:52.678Z,10.48
2023-04-18T22:40:19.646Z,11.48
2023-04-18T22:42:46.184Z,10.50
2023-04-18T22:45:13.758Z,10.55
2023-04-18T22:47:40.682Z,11.63
2023-04-18T22:50:08.054Z,13.80
2023-04-18T22:52:34.640Z,9.70
2023-04-18T22:55:04.552Z,10.95
2023-04-18T22:57:31.119Z,11.20
2023-04-18T22:59:57.769Z,10.15
2023-04-18T23:02:24.596Z,10.10
2023-04-18T23:04:51.564Z,11.10
2023-04-18T23:07:18.188Z,10.48
2023-04-18T23:09:44.952Z,11.38
2023-04-18T23:12:11.525Z,15.98
2023-04-18T23:14:38.834Z,10.93
2023-04-18T23:17:05.467Z,10.65
2023-04-18T23:19:32.021Z,10.15
2023-04-18T23:21:59.600Z,11.05
2023-04-18T23:24:26.766Z,10.93
2023-04-18T23:26:53.432Z,10.88
2023-04-18T23:29:20.014Z,11.18
2023-04-18T23:31:46.862Z,9.38
2023-04-18T23:34:13.783Z,10.35
2023-04-18T23:36:40.571Z,10.60
2023-04-18T23:39:08.612Z,9.57
2023-04-18T23:41:35.317Z,10.73
2023-04-18T23:44:02.046Z,10.20
2023-04-18T23:46:28.686Z,12.45
2023-04-18T23:48:55.274Z,11.45
2023-04-18T23:51:22.331Z,15.38
2023-04-18T23:53:48.928Z,9.75
2023-04-18T23:56:15.856Z,10.70
2023-04-18T23:58:42.784Z,11.40
